createdAt,value
2022-11-28T00:01:41.269Z,1.75
2022-11-28T00:04:08.475Z,1.77
2022-11-28T00:06:40.656Z,1.76
2022-11-28T00:09:08.474Z,1.74
2022-11-28T00:11:35.191Z,1.73
2022-11-28T00:14:01.770Z,1.67
2022-11-28T00:16:28.433Z,1.69
2022-11-28T00:18:55.406Z,1.65
2022-11-28T00:21:24.638Z,1.66
2022-11-28T00:23:52.010Z,1.64
2022-11-28T00:26:31.387Z,1.62
2022-11-28T00:28:59.172Z,1.63
2022-11-28T00:31:29.274Z,1.64
2022-11-28T00:33:56.455Z,1.61
2022-11-28T00:36:24.080Z,1.63
2022-11-28T00:38:51.445Z,1.61
2022-11-28T00:41:29.363Z,1.54
2022-11-28T00:43:55.925Z,1.54
2022-11-28T00:46:23.703Z,1.56
2022-11-28T00:48:50.919Z,1.55
2022-11-28T00:51:23.045Z,1.52
2022-11-28T00:53:51.594Z,1.51
2022-11-28T00:56:21.478Z,1.56
2022-11-28T00:58:49.828Z,1.54
2022-11-28T01:01:20.910Z,1.58
2022-11-28T01:03:49.360Z,1.61
2022-11-28T01:06:26.103Z,1.62
2022-11-28T01:08:52.707Z,1.66
2022-11-28T01:11:20.088Z,1.65
2022-11-28T01:13:47.196Z,1.69
2022-11-28T01:16:14.308Z,1.67
2022-11-28T01:18:41.149Z,1.64
2022-11-28T01:21:08.477Z,1.61
2022-11-28T01:23:35.356Z,1.55
2022-11-28T01:26:03.057Z,1.57
2022-11-28T01:28:29.619Z,1.55
2022-11-28T01:30:56.195Z,1.60
2022-11-28T01:33:22.933Z,1.59
2022-11-28T01:35:57.987Z,1.66
2022-11-28T01:38:25.315Z,1.65
2022-11-28T01:40:52.365Z,1.69
2022-11-28T01:43:19.258Z,1.64
2022-11-28T01:45:45.936Z,1.67
2022-11-28T01:48:18.488Z,1.71
2022-11-28T01:50:46.202Z,1.66
2022-11-28T01:53:13.885Z,1.70
2022-11-28T01:55:49.306Z,1.69
2022-11-28T01:58:16.002Z,1.60
2022-11-28T02:00:42.752Z,1.60
2022-11-28T02:03:18.940Z,1.57
2022-11-28T02:05:46.906Z,1.51
2022-11-28T02:08:13.454Z,1.47
2022-11-28T02:10:39.888Z,1.48
2022-11-28T02:13:34.494Z,1.48
2022-11-28T02:16:19.005Z,1.46
2022-11-28T02:18:57.387Z,1.45
2022-11-28T02:21:32.937Z,1.43
2022-11-28T02:24:14.550Z,1.44
2022-11-28T02:26:56.720Z,1.40
2022-11-28T02:29:35.486Z,1.40
2022-11-28T02:32:30.156Z,1.34
2022-11-28T02:35:27.677Z,1.27
2022-11-28T02:38:27.978Z,1.26
2022-11-28T02:41:06.420Z,1.16
2022-11-28T02:43:41.984Z,1.11
2022-11-28T02:46:11.436Z,1.08
2022-11-28T02:48:41.679Z,1.01
2022-11-28T02:51:44.183Z,0.97
2022-11-28T02:54:13.404Z,0.96
2022-11-28T02:56:50.701Z,0.99
2022-11-28T02:59:32.415Z,0.94
2022-11-28T03:02:00.771Z,0.91
2022-11-28T03:04:33.006Z,0.88
2022-11-28T03:07:06.357Z,0.82
2022-11-28T03:09:41.908Z,0.82
2022-11-28T03:12:17.942Z,0.83
2022-11-28T03:14:53.778Z,0.96
2022-11-28T03:17:52.213Z,0.94
2022-11-28T03:20:47.041Z,0.89
2022-11-28T03:23:21.171Z,0.82
2022-11-28T03:25:47.571Z,0.80
2022-11-28T03:28:26.044Z,0.79
2022-11-28T03:31:10.952Z,0.80
2022-11-28T03:33:39.310Z,0.71
2022-11-28T03:36:12.151Z,0.66
2022-11-28T03:38:42.950Z,0.56
2022-11-28T03:41:28.513Z,0.57
2022-11-28T03:43:58.333Z,0.59
2022-11-28T03:46:35.226Z,0.53
2022-11-28T03:49:03.531Z,0.60
2022-11-28T03:51:37.308Z,0.58
2022-11-28T03:54:14.595Z,0.57
2022-11-28T03:56:47.156Z,0.63
2022-11-28T03:59:23.399Z,0.66
2022-11-28T04:02:18.151Z,0.71
2022-11-28T04:05:24.570Z,0.73
2022-11-28T04:08:01.344Z,0.75
2022-11-28T04:10:35.376Z,0.74
2022-11-28T04:13:15.580Z,0.83
2022-11-28T04:16:11.294Z,0.78
2022-11-28T04:18:51.056Z,0.82
2022-11-28T04:21:43.698Z,0.84
2022-11-28T04:24:21.660Z,0.86
2022-11-28T04:26:54.841Z,0.91
2022-11-28T04:29:24.315Z,0.81
2022-11-28T04:31:56.059Z,0.78
2022-11-28T04:34:23.731Z,0.81
2022-11-28T04:36:52.543Z,0.82
2022-11-28T04:39:22.094Z,0.80
2022-11-28T04:41:53.594Z,0.69
2022-11-28T04:44:29.783Z,0.78
2022-11-28T04:46:57.808Z,0.77
2022-11-28T04:49:26.619Z,0.71
2022-11-28T04:52:14.473Z,0.68
2022-11-28T04:54:53.655Z,0.68
2022-11-28T04:57:46.563Z,0.71
2022-11-28T05:00:16.817Z,0.66
2022-11-28T05:02:45.726Z,0.59
2022-11-28T05:05:23.468Z,0.49
2022-11-28T05:07:50.012Z,0.46
2022-11-28T05:10:17.930Z,0.44
2022-11-28T05:12:44.454Z,0.42
2022-11-28T05:15:11.871Z,0.39
2022-11-28T05:17:42.120Z,0.40
2022-11-28T05:20:10.034Z,0.37
2022-11-28T05:22:36.535Z,0.36
2022-11-28T05:25:03.317Z,0.33
2022-11-28T05:27:29.834Z,0.35
2022-11-28T05:29:56.363Z,0.42
2022-11-28T05:32:22.887Z,0.44
2022-11-28T05:34:49.394Z,0.41
2022-11-28T05:37:15.955Z,0.43
2022-11-28T05:39:42.643Z,0.46
2022-11-28T05:42:09.302Z,0.46
2022-11-28T05:44:37.150Z,0.55
2022-11-28T05:47:03.959Z,0.56
2022-11-28T05:49:30.510Z,0.53
2022-11-28T05:51:56.971Z,0.50
2022-11-28T05:54:23.487Z,0.43
2022-11-28T05:56:50.031Z,0.43
2022-11-28T05:59:16.516Z,0.38
2022-11-28T06:01:43.508Z,0.32
2022-11-28T06:04:10.100Z,0.25
2022-11-28T06:06:36.995Z,0.18
2022-11-28T06:09:04.709Z,0.13
2022-11-28T06:11:32.653Z,0.12
2022-11-28T06:13:59.295Z,0.17
2022-11-28T06:16:27.951Z,0.20
2022-11-28T06:18:57.057Z,0.20
2022-11-28T06:21:24.917Z,0.23
2022-11-28T06:23:52.811Z,0.25
2022-11-28T06:26:22.161Z,0.20
2022-11-28T06:28:49.178Z,0.14
2022-11-28T06:31:18.610Z,0.10
2022-11-28T06:33:45.620Z,0.03
2022-11-28T06:36:13.604Z,0.33
2022-11-28T06:38:40.669Z,0.80
2022-11-28T06:41:10.198Z,0.40
2022-11-28T06:43:37.405Z,0.25
2022-11-28T06:46:04.658Z,0.13
2022-11-28T06:48:32.256Z,0.12
2022-11-28T06:51:04.374Z,0.19
2022-11-28T06:53:31.731Z,0.24
2022-11-28T06:55:58.517Z,0.37
2022-11-28T06:58:25.024Z,0.46
2022-11-28T07:00:51.602Z,0.58
2022-11-28T07:03:18.190Z,0.62
2022-11-28T07:05:45.052Z,0.71
2022-11-28T07:08:11.800Z,0.73
2022-11-28T07:10:38.565Z,0.81
2022-11-28T07:13:05.740Z,0.84
2022-11-28T07:15:32.438Z,0.78
2022-11-28T07:17:58.980Z,0.68
2022-11-28T07:20:25.479Z,0.54
2022-11-28T07:22:51.978Z,0.41
2022-11-28T07:25:18.535Z,0.35
2022-11-28T07:27:45.017Z,0.30
2022-11-28T07:30:11.763Z,0.37
2022-11-28T07:32:41.651Z,0.43
2022-11-28T07:35:09.055Z,0.53
2022-11-28T07:37:36.264Z,0.70
2022-11-28T07:40:03.867Z,0.94
2022-11-28T07:42:30.424Z,0.84
2022-11-28T07:44:56.962Z,0.80
2022-11-28T07:47:23.476Z,0.88
2022-11-28T07:49:50.050Z,1.06
2022-11-28T07:52:16.560Z,1.12
2022-11-28T07:54:43.085Z,1.29
2022-11-28T07:57:13.355Z,1.48
2022-11-28T07:59:40.752Z,1.69
2022-11-28T08:02:09.047Z,1.71
2022-11-28T08:04:37.135Z,1.80
2022-11-28T08:07:03.721Z,1.63
2022-11-28T08:09:31.791Z,1.68
2022-11-28T08:11:58.713Z,1.73
2022-11-28T08:14:25.393Z,1.59
2022-11-28T08:16:52.407Z,1.80
2022-11-28T08:19:22.959Z,2.03
2022-11-28T08:21:51.377Z,2.08
2022-11-28T08:24:17.845Z,1.90
2022-11-28T08:26:44.405Z,1.70
2022-11-28T08:29:11.116Z,1.67
2022-11-28T08:31:38.894Z,2.03
2022-11-28T08:34:09.328Z,2.17
2022-11-28T08:36:35.889Z,2.01
2022-11-28T08:39:22.718Z,1.86
2022-11-28T08:41:49.869Z,1.72
2022-11-28T08:44:16.404Z,1.86
2022-11-28T08:46:43.060Z,1.89
2022-11-28T08:49:09.599Z,1.87
2022-11-28T08:51:36.938Z,1.57
2022-11-28T08:54:03.513Z,1.66
2022-11-28T08:56:30.625Z,1.69
2022-11-28T08:58:57.181Z,1.97
2022-11-28T09:01:40.870Z,2.22
2022-11-28T09:04:24.220Z,2.41
2022-11-28T09:06:54.210Z,2.48
2022-11-28T09:09:20.825Z,2.19
2022-11-28T09:11:47.529Z,2.29
2022-11-28T09:14:14.127Z,2.18
2022-11-28T09:16:41.054Z,2.27
2022-11-28T09:19:09.266Z,2.50
2022-11-28T09:21:37.257Z,2.73
2022-11-28T09:24:04.308Z,2.95
2022-11-28T09:26:30.873Z,3.15
2022-11-28T09:28:57.422Z,3.16
2022-11-28T09:31:24.070Z,3.14
2022-11-28T09:33:50.804Z,2.94
2022-11-28T09:36:20.441Z,2.79
2022-11-28T09:38:47.637Z,2.61
2022-11-28T09:41:49.244Z,2.71
2022-11-28T09:44:30.342Z,2.81
2022-11-28T09:47:02.399Z,2.61
2022-11-28T09:49:36.803Z,2.71
2022-11-28T09:52:43.792Z,2.98
2022-11-28T09:55:39.308Z,2.79
2022-11-28T09:58:15.532Z,2.80
2022-11-28T10:01:21.010Z,2.98
2022-11-28T10:04:03.365Z,2.76
2022-11-28T10:07:07.998Z,2.65
2022-11-28T10:09:44.174Z,2.82
2022-11-28T10:12:20.205Z,3.02
2022-11-28T10:14:54.717Z,3.42
2022-11-28T10:17:37.231Z,3.92
2022-11-28T10:20:06.510Z,4.31
2022-11-28T10:22:42.998Z,4.68
2022-11-28T10:25:31.443Z,4.88
2022-11-28T10:27:58.231Z,4.73
2022-11-28T10:30:33.929Z,5.10
2022-11-28T10:33:23.129Z,5.36
2022-11-28T10:37:25.835Z,5.54
2022-11-28T10:43:59.582Z,5.52
2022-11-28T10:46:47.677Z,5.10
2022-11-28T10:54:28.398Z,5.40
2022-11-28T10:57:02.814Z,5.63
2022-11-28T11:00:18.739Z,5.68
2022-11-28T11:03:14.702Z,5.51
2022-11-28T11:06:07.291Z,5.35
2022-11-28T11:08:40.878Z,5.46
2022-11-28T11:11:37.449Z,5.61
2022-11-28T11:14:07.393Z,5.49
2022-11-28T11:16:57.033Z,5.48
2022-11-28T11:19:30.029Z,5.26
2022-11-28T11:22:02.623Z,5.29
2022-11-28T11:24:29.514Z,5.03
2022-11-28T11:27:08.066Z,5.03
2022-11-28T11:29:37.405Z,5.05
2022-11-28T11:32:06.438Z,5.21
2022-11-28T11:34:42.475Z,4.85
2022-11-28T11:37:38.699Z,4.55
2022-11-28T11:40:26.962Z,4.44
2022-11-28T11:42:57.304Z,4.46
2022-11-28T11:45:34.235Z,4.49
2022-11-28T11:48:01.927Z,4.40
2022-11-28T11:50:30.432Z,4.38
2022-11-28T11:53:06.688Z,4.46
2022-11-28T11:55:43.210Z,4.51
2022-11-28T11:58:15.289Z,4.52
2022-11-28T12:00:43.529Z,4.56
2022-11-28T12:03:53.500Z,4.32
2022-11-28T12:06:27.940Z,4.16
2022-11-28T12:09:00.224Z,4.21
2022-11-28T12:11:31.933Z,4.16
2022-11-28T12:14:14.738Z,4.22
2022-11-28T12:16:41.661Z,4.12
2022-11-28T12:19:28.368Z,4.16
2022-11-28T12:22:13.180Z,4.13
2022-11-28T12:25:03.818Z,4.38
2022-11-28T12:27:32.915Z,4.40
2022-11-28T12:30:21.212Z,4.43
2022-11-28T12:33:14.456Z,4.24
2022-11-28T12:35:45.534Z,4.10
2022-11-28T12:38:41.298Z,4.16
2022-11-28T12:41:19.727Z,4.10
2022-11-28T12:44:25.291Z,4.12
2022-11-28T12:47:02.282Z,4.03
2022-11-28T12:49:45.735Z,4.08
2022-11-28T12:52:40.568Z,4.00
2022-11-28T12:55:30.595Z,3.99
2022-11-28T12:58:21.557Z,4.10
2022-11-28T13:01:00.470Z,4.19
2022-11-28T13:03:42.604Z,4.04
2022-11-28T13:06:22.199Z,4.03
2022-11-28T13:09:14.530Z,3.92
2022-11-28T13:12:03.530Z,3.85
2022-11-28T13:14:37.688Z,3.85
2022-11-28T13:20:09.274Z,3.79
2022-11-28T13:23:03.901Z,3.78
2022-11-28T13:25:47.754Z,3.73
2022-11-28T13:28:14.333Z,3.71
2022-11-28T13:30:58.747Z,3.70
2022-11-28T13:33:32.328Z,3.70
2022-11-28T13:36:01.254Z,3.63
2022-11-28T13:39:11.968Z,3.59
2022-11-28T13:42:35.978Z,3.41
2022-11-28T13:44:44.286Z,3.45
2022-11-28T13:47:27.950Z,3.38
2022-11-28T13:50:32.144Z,3.42
2022-11-28T13:53:07.692Z,3.46
2022-11-28T13:55:45.092Z,3.46
2022-11-28T13:58:23.510Z,3.54
2022-11-28T14:01:13.072Z,3.53
2022-11-28T14:03:49.357Z,3.54
2022-11-28T14:06:28.394Z,3.50
2022-11-28T14:09:16.255Z,3.47
2022-11-28T14:11:59.913Z,3.33
2022-11-28T14:14:56.860Z,3.32
2022-11-28T14:17:47.099Z,3.46
2022-11-28T14:20:28.948Z,4.14
2022-11-28T14:23:30.830Z,4.09
2022-11-28T14:25:58.899Z,4.14
2022-11-28T14:28:37.845Z,3.88
2022-11-28T14:31:32.054Z,3.58
2022-11-28T14:34:01.711Z,3.45
2022-11-28T14:36:34.250Z,3.38
2022-11-28T14:39:08.078Z,3.31
2022-11-28T14:42:03.538Z,3.16
2022-11-28T14:45:07.894Z,3.08
2022-11-28T14:47:39.446Z,3.08
2022-11-28T14:50:06.053Z,3.09
2022-11-28T14:52:39.443Z,3.06
2022-11-28T14:55:12.673Z,3.12
2022-11-28T14:57:44.916Z,3.10
2022-11-28T15:00:18.361Z,3.03
2022-11-28T15:03:22.573Z,3.00
2022-11-28T15:05:53.975Z,2.95
2022-11-28T15:09:01.031Z,2.89
2022-11-28T15:11:27.485Z,2.85
2022-11-28T15:14:17.442Z,2.76
2022-11-28T15:16:50.140Z,2.72
2022-11-28T15:19:39.503Z,2.67
2022-11-28T15:22:06.069Z,2.64
2022-11-28T15:24:35.300Z,2.62
2022-11-28T15:27:07.737Z,2.62
2022-11-28T15:29:35.899Z,2.64
2022-11-28T15:32:02.901Z,2.57
2022-11-28T15:34:32.203Z,2.60
2022-11-28T15:37:07.468Z,2.61
2022-11-28T15:39:40.532Z,2.54
2022-11-28T15:42:23.805Z,2.51
2022-11-28T15:45:14.413Z,2.42
2022-11-28T15:47:41.210Z,2.44
2022-11-28T15:50:11.509Z,2.41
2022-11-28T15:52:38.087Z,2.36
2022-11-28T15:55:16.023Z,2.30
2022-11-28T15:57:42.542Z,2.30
2022-11-28T16:00:13.681Z,2.27
2022-11-28T16:02:42.288Z,2.28
2022-11-28T16:05:10.715Z,2.20
2022-11-28T16:07:42.531Z,2.20
2022-11-28T16:10:32.794Z,2.23
2022-11-28T16:13:08.661Z,2.23
2022-11-28T16:15:36.886Z,2.28
2022-11-28T16:18:03.748Z,2.32
2022-11-28T16:20:35.696Z,2.31
2022-11-28T16:23:09.397Z,2.27
2022-11-28T16:25:36.873Z,2.27
2022-11-28T16:28:03.869Z,2.22
2022-11-28T16:30:44.675Z,2.24
2022-11-28T16:33:38.673Z,2.21
2022-11-28T16:36:19.717Z,2.16
2022-11-28T16:38:48.275Z,2.19
2022-11-28T16:41:25.098Z,2.16
2022-11-28T16:43:59.359Z,2.12
2022-11-28T16:46:32.200Z,2.14
2022-11-28T16:48:59.694Z,2.17
2022-11-28T16:51:26.185Z,2.18
2022-11-28T16:53:59.267Z,2.16
2022-11-28T16:56:27.109Z,2.13
2022-11-28T16:58:58.933Z,2.15
2022-11-28T17:01:25.715Z,2.09
2022-11-28T17:03:53.551Z,2.13
2022-11-28T17:06:34.253Z,2.16
2022-11-28T17:09:02.200Z,2.17
2022-11-28T17:11:33.187Z,2.20
2022-11-28T17:14:02.537Z,2.23
2022-11-28T17:16:33.406Z,2.18
2022-11-28T17:19:00.094Z,2.17
2022-11-28T17:21:42.439Z,2.16
2022-11-28T17:24:17.498Z,2.15
2022-11-28T17:26:44.148Z,2.12
2022-11-28T17:29:12.632Z,2.09
2022-11-28T17:31:42.393Z,2.09
2022-11-28T17:34:20.688Z,2.08
2022-11-28T17:36:47.942Z,2.00
2022-11-28T17:39:14.941Z,2.05
2022-11-28T17:41:41.589Z,2.04
2022-11-28T17:44:24.204Z,2.04
2022-11-28T17:46:52.971Z,2.05
2022-11-28T17:49:20.227Z,2.07
2022-11-28T17:51:47.303Z,2.01
2022-11-28T17:54:18.880Z,1.99
2022-11-28T17:56:47.743Z,2.01
2022-11-28T17:59:18.847Z,1.93
2022-11-28T18:01:46.581Z,1.94
2022-11-28T18:04:13.218Z,1.90
2022-11-28T18:06:43.753Z,1.93
2022-11-28T18:09:12.336Z,1.96
2022-11-28T18:11:40.294Z,1.95
2022-11-28T18:14:07.243Z,1.99
2022-11-28T18:16:35.897Z,1.98
2022-11-28T18:19:03.383Z,1.99
2022-11-28T18:21:29.958Z,1.94
2022-11-28T18:23:56.501Z,2.00
2022-11-28T18:26:25.011Z,2.07
2022-11-28T18:28:52.073Z,2.06
2022-11-28T18:31:22.632Z,2.03
2022-11-28T18:33:49.739Z,2.05
2022-11-28T18:36:19.453Z,2.05
2022-11-28T18:38:46.800Z,2.04
2022-11-28T18:41:15.572Z,2.04
2022-11-28T18:43:42.580Z,2.05
2022-11-28T18:46:12.037Z,2.05
2022-11-28T18:48:40.705Z,2.06
2022-11-28T18:51:21.863Z,2.15
2022-11-28T18:53:49.776Z,2.17
2022-11-28T18:56:16.985Z,2.21
2022-11-28T18:58:47.841Z,2.26
2022-11-28T19:01:25.115Z,2.29
2022-11-28T19:03:54.156Z,2.23
2022-11-28T19:06:21.462Z,2.29
2022-11-28T19:08:52.597Z,2.28
2022-11-28T19:11:19.187Z,2.26
2022-11-28T19:13:47.428Z,2.28
2022-11-28T19:16:18.150Z,2.24
2022-11-28T19:18:45.100Z,2.26
2022-11-28T19:21:17.855Z,2.26
2022-11-28T19:23:44.691Z,2.26
2022-11-28T19:26:14.277Z,2.26
2022-11-28T19:28:41.995Z,2.30
2022-11-28T19:31:22.554Z,2.26
2022-11-28T19:34:02.352Z,2.26
2022-11-28T19:36:33.416Z,2.27
2022-11-28T19:39:00.240Z,2.27
2022-11-28T19:41:28.404Z,2.23
2022-11-28T19:43:54.937Z,2.22
2022-11-28T19:46:21.431Z,2.17
2022-11-28T19:48:47.954Z,2.18
2022-11-28T19:51:15.819Z,2.21
2022-11-28T19:53:43.571Z,2.18
2022-11-28T19:56:16.600Z,2.20
2022-11-28T19:58:43.798Z,2.21
2022-11-28T20:01:12.488Z,2.22
2022-11-28T20:03:41.132Z,2.24
2022-11-28T20:06:15.954Z,2.30
2022-11-28T20:08:43.132Z,2.31
2022-11-28T20:11:10.646Z,2.33
2022-11-28T20:13:37.217Z,2.35
2022-11-28T20:16:05.942Z,2.37
2022-11-28T20:18:32.900Z,2.39
2022-11-28T20:21:06.209Z,2.37
2022-11-28T20:23:33.271Z,2.38
2022-11-28T20:26:04.698Z,2.38
2022-11-28T20:28:35.821Z,2.40
2022-11-28T20:31:02.517Z,2.41
2022-11-28T20:33:29.782Z,2.43
2022-11-28T20:36:11.022Z,2.41
2022-11-28T20:38:37.540Z,2.44
2022-11-28T20:41:05.852Z,2.44
2022-11-28T20:43:34.257Z,2.41
2022-11-28T20:46:05.366Z,2.36
2022-11-28T20:48:32.120Z,2.37
2022-11-28T20:50:58.733Z,2.36
2022-11-28T20:53:27.043Z,2.31
2022-11-28T20:56:01.658Z,2.31
2022-11-28T20:58:28.796Z,2.29
2022-11-28T21:00:57.133Z,2.24
2022-11-28T21:03:24.657Z,2.23
2022-11-28T21:05:56.417Z,2.32
2022-11-28T21:08:26.163Z,2.31
2022-11-28T21:10:52.658Z,2.31
2022-11-28T21:13:19.373Z,2.29
2022-11-28T21:15:45.920Z,2.27
2022-11-28T21:18:16.146Z,2.32
2022-11-28T21:20:45.671Z,2.29
2022-11-28T21:23:13.796Z,2.28
2022-11-28T21:25:42.301Z,2.23
2022-11-28T21:28:09.776Z,2.22
2022-11-28T21:30:42.600Z,2.23
2022-11-28T21:33:11.061Z,2.26
2022-11-28T21:35:39.193Z,2.27
2022-11-28T21:38:06.683Z,2.29
2022-11-28T21:40:33.703Z,2.28
2022-11-28T21:43:00.270Z,2.25
2022-11-28T21:45:26.872Z,2.22
2022-11-28T21:47:53.448Z,2.26
2022-11-28T21:50:20.043Z,2.27
2022-11-28T21:52:46.515Z,2.26
2022-11-28T21:55:12.988Z,2.23
2022-11-28T21:57:42.111Z,2.19
2022-11-28T22:00:25.679Z,2.23
2022-11-28T22:03:02.532Z,2.19
2022-11-28T22:05:31.652Z,2.20
2022-11-28T22:07:58.494Z,2.17
2022-11-28T22:10:25.046Z,2.16
2022-11-28T22:12:51.622Z,2.16
2022-11-28T22:15:18.215Z,2.14
2022-11-28T22:17:44.697Z,2.21
2022-11-28T22:20:11.853Z,2.12
2022-11-28T22:22:38.393Z,2.07
2022-11-28T22:25:05.368Z,2.06
2022-11-28T22:27:32.458Z,2.11
2022-11-28T22:29:59.069Z,2.14
2022-11-28T22:32:25.559Z,2.10
2022-11-28T22:34:52.085Z,2.11
2022-11-28T22:37:18.574Z,2.17
2022-11-28T22:39:45.106Z,2.14
2022-11-28T22:42:11.691Z,2.12
2022-11-28T22:44:38.222Z,2.09
2022-11-28T22:47:05.004Z,2.04
2022-11-28T22:49:31.530Z,2.06
2022-11-28T22:51:57.993Z,2.08
2022-11-28T22:54:24.506Z,2.06
2022-11-28T22:56:53.103Z,2.07
2022-11-28T22:59:19.707Z,2.09
2022-11-28T23:01:46.311Z,2.12
2022-11-28T23:04:12.805Z,2.11
2022-11-28T23:06:39.923Z,2.08
2022-11-28T23:09:08.342Z,2.09
2022-11-28T23:11:38.270Z,2.12
2022-11-28T23:14:05.598Z,2.13
2022-11-28T23:16:34.669Z,2.16
2022-11-28T23:19:05.115Z,2.15
2022-11-28T23:21:37.193Z,2.24
2022-11-28T23:24:04.765Z,2.27
2022-11-28T23:26:32.147Z,2.26
2022-11-28T23:29:00.807Z,2.23
2022-11-28T23:31:30.113Z,2.22
2022-11-28T23:33:57.931Z,2.18
2022-11-28T23:36:28.664Z,2.15
2022-11-28T23:38:57.748Z,2.17
2022-11-28T23:41:25.226Z,2.18
2022-11-28T23:43:51.799Z,2.09
2022-11-28T23:46:19.607Z,2.11
2022-11-28T23:48:46.934Z,2.07
2022-11-28T23:51:18.843Z,2.06
2022-11-28T23:53:45.720Z,2.04
2022-11-28T23:56:15.564Z,2.07
2022-11-28T23:58:42.621Z,2.02
